createdAt,value
2022-08-05T00:00:50.307Z,84.39
2022-08-05T00:01:49.644Z,84.39
2022-08-05T00:02:51.743Z,84.73
2022-08-05T00:03:48.537Z,84.53
2022-08-05T00:04:55.114Z,84.53
2022-08-05T00:06:05.260Z,84.53
2022-08-05T00:06:51.735Z,84.23
2022-08-05T00:08:01.018Z,84.33
2022-08-05T00:08:49.458Z,84.43
2022-08-05T00:09:48.480Z,83.93
2022-08-05T00:10:48.448Z,83.73
2022-08-05T00:11:55.337Z,83.83
2022-08-05T00:12:56.417Z,84.13
2022-08-05T00:13:52.964Z,83.97
2022-08-05T00:14:48.406Z,83.83
2022-08-05T00:15:57.879Z,83.83
2022-08-05T00:16:52.784Z,83.83
2022-08-05T00:17:48.370Z,83.63
2022-08-05T00:18:48.353Z,83.63
2022-08-05T00:20:02.225Z,83.53
2022-08-05T00:20:49.352Z,83.43
2022-08-05T00:21:48.334Z,83.43
2022-08-05T00:22:57.484Z,83.43
2022-08-05T00:24:05.060Z,83.33
2022-08-05T00:24:54.826Z,83.33
2022-08-05T00:25:49.280Z,82.93
2022-08-05T00:26:51.909Z,83.13
2022-08-05T00:27:48.259Z,83.03
2022-08-05T00:28:49.259Z,83.03
2022-08-05T00:29:49.183Z,82.83
2022-08-05T00:30:52.068Z,83.03
2022-08-05T00:32:10.618Z,83.00
2022-08-05T00:32:49.192Z,83.19
2022-08-05T00:34:53.353Z,83.00
2022-08-05T00:35:05.230Z,82.79
2022-08-05T00:36:16.440Z,82.69
2022-08-05T00:37:13.280Z,82.69
2022-08-05T00:37:53.172Z,82.69
2022-08-05T00:38:48.133Z,82.69
2022-08-05T00:39:57.994Z,82.79
2022-08-05T00:40:52.004Z,83.03
2022-08-05T00:41:54.989Z,83.43
2022-08-05T00:42:50.028Z,83.33
2022-08-05T00:43:50.020Z,83.43
2022-08-05T00:44:48.082Z,83.43
2022-08-05T00:45:48.054Z,83.43
2022-08-05T00:46:48.053Z,83.43
2022-08-05T00:47:57.337Z,83.33
2022-08-05T00:48:51.420Z,83.33
2022-08-05T00:49:51.743Z,83.43
2022-08-05T00:50:48.035Z,83.63
2022-08-05T00:51:50.914Z,83.63
2022-08-05T00:52:47.976Z,83.87
2022-08-05T00:54:02.843Z,83.87
2022-08-05T00:54:48.946Z,83.67
2022-08-05T00:55:47.978Z,83.77
2022-08-05T00:56:51.642Z,83.77
2022-08-05T00:57:55.451Z,83.67
2022-08-05T00:58:48.899Z,83.77
2022-08-05T00:59:47.917Z,83.77
2022-08-05T01:00:50.212Z,83.77
2022-08-05T01:01:49.003Z,83.67
2022-08-05T01:02:47.873Z,83.67
2022-08-05T01:03:49.997Z,83.47
2022-08-05T01:04:50.470Z,83.47
2022-08-05T01:05:47.852Z,83.47
2022-08-05T01:06:48.818Z,83.43
2022-08-05T01:08:39.976Z,83.73
2022-08-05T01:08:48.795Z,83.63
2022-08-05T01:09:55.579Z,84.03
2022-08-05T01:10:52.278Z,83.93
2022-08-05T01:11:47.765Z,83.73
2022-08-05T01:13:05.096Z,83.33
2022-08-05T01:13:57.373Z,83.13
2022-08-05T01:14:48.752Z,83.13
2022-08-05T01:15:48.070Z,82.83
2022-08-05T01:16:47.720Z,82.83
2022-08-05T01:17:54.004Z,83.03
2022-08-05T01:18:53.789Z,83.23
2022-08-05T01:20:02.088Z,83.13
2022-08-05T01:20:48.680Z,82.87
2022-08-05T01:21:50.687Z,82.77
2022-08-05T01:22:47.649Z,82.87
2022-08-05T01:23:53.109Z,82.97
2022-08-05T01:24:48.631Z,82.97
2022-08-05T01:25:53.434Z,82.97
2022-08-05T01:26:48.602Z,82.77
2022-08-05T01:27:55.190Z,82.57
2022-08-05T01:28:48.571Z,82.37
2022-08-05T01:29:47.600Z,82.47
2022-08-05T01:30:53.805Z,82.37
2022-08-05T01:31:48.555Z,82.28
2022-08-05T01:32:47.554Z,82.07
2022-08-05T01:33:49.277Z,82.07
2022-08-05T01:34:48.555Z,81.87
2022-08-05T01:35:52.107Z,81.67
2022-08-05T01:36:48.490Z,81.57
2022-08-05T01:37:47.486Z,81.18
2022-08-05T01:38:48.438Z,80.98
2022-08-05T01:39:47.866Z,80.98
2022-08-05T01:40:47.452Z,80.77
2022-08-05T01:41:47.446Z,81.12
2022-08-05T01:42:47.427Z,81.12
2022-08-05T01:43:48.898Z,81.12
2022-08-05T01:44:54.092Z,81.12
2022-08-05T01:45:56.166Z,80.91
2022-08-05T01:46:48.379Z,80.41
2022-08-05T01:47:47.833Z,80.32
2022-08-05T01:48:49.766Z,80.51
2022-08-05T01:50:00.546Z,80.41
2022-08-05T01:50:51.315Z,80.41
2022-08-05T01:51:51.726Z,80.71
2022-08-05T01:52:50.170Z,80.82
2022-08-05T01:53:57.036Z,81.21
2022-08-05T01:54:48.285Z,81.01
2022-08-05T01:55:47.282Z,81.12
2022-08-05T01:58:12.153Z,80.32
2022-08-05T01:58:13.193Z,80.71
2022-08-05T01:58:48.502Z,80.41
2022-08-05T01:59:47.403Z,80.15
2022-08-05T02:00:47.221Z,80.21
2022-08-05T02:01:47.233Z,79.65
2022-08-05T02:02:54.325Z,79.85
2022-08-05T02:03:48.209Z,79.65
2022-08-05T02:04:49.509Z,79.75
2022-08-05T02:05:47.169Z,80.15
2022-08-05T02:06:47.147Z,80.15
2022-08-05T02:07:47.294Z,79.96
2022-08-05T02:08:57.847Z,80.15
2022-08-05T02:09:48.125Z,80.35
2022-08-05T02:10:47.137Z,80.45
2022-08-05T02:11:48.072Z,80.76
2022-08-05T02:12:51.020Z,80.76
2022-08-05T02:13:53.062Z,80.65
2022-08-05T02:14:48.071Z,81.15
2022-08-05T02:15:47.080Z,81.45
2022-08-05T02:16:47.042Z,82.05
2022-08-05T02:18:32.691Z,82.45
2022-08-05T02:18:48.015Z,82.65
2022-08-05T02:19:47.782Z,83.05
2022-08-05T02:20:47.089Z,83.15
2022-08-05T02:21:49.226Z,83.95
2022-08-05T02:22:46.979Z,83.65
2022-08-05T02:23:46.965Z,84.35
2022-08-05T02:24:46.965Z,84.55
2022-08-05T02:25:49.365Z,84.35
2022-08-05T02:26:54.030Z,85.55
2022-08-05T02:27:59.049Z,85.85
2022-08-05T02:28:47.928Z,85.69
2022-08-05T02:29:59.434Z,85.99
2022-08-05T02:30:54.349Z,85.79
2022-08-05T02:31:47.883Z,85.79
2022-08-05T02:32:46.859Z,85.59
2022-08-05T02:33:48.434Z,85.79
2022-08-05T02:34:54.909Z,85.63
2022-08-05T02:35:55.841Z,85.43
2022-08-05T02:36:47.819Z,85.83
2022-08-05T02:37:53.797Z,86.57
2022-08-05T02:38:53.469Z,87.18
2022-08-05T02:39:47.859Z,87.82
2022-08-05T02:40:46.792Z,88.12
2022-08-05T02:42:00.822Z,88.32
2022-08-05T02:42:52.719Z,88.42
2022-08-05T02:44:02.532Z,88.66
2022-08-05T02:44:47.744Z,88.76
2022-08-05T02:45:52.484Z,88.96
2022-08-05T02:46:58.672Z,88.96
2022-08-05T02:48:06.480Z,88.96
2022-08-05T02:48:47.685Z,88.76
2022-08-05T02:49:46.704Z,88.36
2022-08-05T02:50:46.657Z,87.46
2022-08-05T02:52:02.658Z,87.16
2022-08-05T02:52:47.656Z,86.76
2022-08-05T02:53:46.635Z,86.96
2022-08-05T02:54:52.037Z,86.85
2022-08-05T02:55:53.939Z,86.85
2022-08-05T02:56:47.598Z,86.96
2022-08-05T02:58:11.266Z,85.66
2022-08-05T02:58:51.421Z,85.46
2022-08-05T02:59:50.578Z,85.66
2022-08-05T03:00:46.551Z,85.96
2022-08-05T03:01:46.596Z,85.82
2022-08-05T03:02:47.530Z,83.95
2022-08-05T03:04:03.277Z,84.35
2022-08-05T03:04:47.510Z,84.65
2022-08-05T03:06:55.331Z,83.65
2022-08-05T03:06:55.753Z,83.75
2022-08-05T03:08:06.911Z,83.29
2022-08-05T03:08:47.468Z,84.09
2022-08-05T03:09:51.619Z,83.63
2022-08-05T03:11:52.999Z,84.93
2022-08-05T03:11:55.202Z,85.33
2022-08-05T03:12:47.413Z,85.74
2022-08-05T03:13:52.047Z,86.04
2022-08-05T03:14:48.190Z,85.74
2022-08-05T03:15:46.396Z,85.94
2022-08-05T03:16:46.371Z,85.60
2022-08-05T03:17:46.359Z,85.89
2022-08-05T03:18:46.424Z,85.69
2022-08-05T03:19:46.347Z,85.60
2022-08-05T03:20:48.609Z,84.65
2022-08-05T03:21:48.829Z,84.55
2022-08-05T03:22:46.898Z,84.75
2022-08-05T03:23:46.314Z,83.85
2022-08-05T03:24:47.056Z,83.99
2022-08-05T03:26:04.298Z,84.29
2022-08-05T03:26:49.399Z,84.69
2022-08-05T03:27:57.986Z,84.85
2022-08-05T03:28:47.252Z,84.85
2022-08-05T03:30:08.083Z,85.55
2022-08-05T03:30:47.242Z,85.15
2022-08-05T03:31:56.508Z,84.65
2022-08-05T03:32:47.212Z,83.95
2022-08-05T03:33:52.920Z,83.75
2022-08-05T03:34:50.496Z,83.35
2022-08-05T03:35:46.166Z,83.75
2022-08-05T03:36:46.160Z,84.15
2022-08-05T03:37:46.918Z,83.95
2022-08-05T03:38:53.320Z,83.49
2022-08-05T03:39:59.379Z,83.99
2022-08-05T03:40:48.579Z,84.93
2022-08-05T03:41:46.846Z,85.33
2022-08-05T03:42:52.607Z,85.44
2022-08-05T03:44:08.597Z,85.24
2022-08-05T03:44:47.067Z,85.24
2022-08-05T03:45:55.308Z,85.03
2022-08-05T03:46:47.059Z,85.03
2022-08-05T03:47:46.057Z,85.39
2022-08-05T03:48:46.770Z,85.49
2022-08-05T03:49:51.316Z,84.89
2022-08-05T03:50:47.006Z,85.44
2022-08-05T03:52:49.325Z,85.63
2022-08-05T03:54:59.295Z,85.53
2022-08-05T03:55:50.895Z,85.83
2022-08-05T03:55:52.580Z,85.94
2022-08-05T03:56:09.585Z,86.04
2022-08-05T03:56:46.932Z,86.54
2022-08-05T03:57:46.319Z,87.10
2022-08-05T03:58:45.917Z,87.60
2022-08-05T03:59:47.215Z,87.50
2022-08-05T04:00:51.564Z,87.10
2022-08-05T04:01:46.913Z,86.90
2022-08-05T04:02:51.981Z,86.10
2022-08-05T04:04:09.683Z,86.30
2022-08-05T04:04:46.846Z,86.30
2022-08-05T04:05:45.847Z,86.60
2022-08-05T04:06:47.880Z,86.30
2022-08-05T04:07:58.378Z,86.19
2022-08-05T04:08:48.583Z,86.10
2022-08-05T04:09:53.809Z,86.19
2022-08-05T04:10:46.781Z,85.89
2022-08-05T04:11:50.939Z,85.60
2022-08-05T04:12:47.781Z,85.69
2022-08-05T04:13:50.948Z,85.69
2022-08-05T04:14:46.743Z,85.99
2022-08-05T04:16:03.046Z,85.99
2022-08-05T04:16:46.701Z,86.30
2022-08-05T04:17:57.361Z,86.19
2022-08-05T04:18:47.577Z,86.40
2022-08-05T04:19:46.713Z,86.10
2022-08-05T04:20:46.670Z,86.40
2022-08-05T04:22:10.006Z,86.10
2022-08-05T04:22:46.634Z,85.69
2022-08-05T04:24:05.874Z,85.89
2022-08-05T04:24:52.419Z,86.30
2022-08-05T04:26:00.406Z,85.99
2022-08-05T04:26:46.716Z,85.80
2022-08-05T04:27:57.490Z,86.19
2022-08-05T04:28:51.142Z,86.19
2022-08-05T04:29:46.575Z,86.40
2022-08-05T04:30:45.557Z,85.99
2022-08-05T04:31:46.287Z,86.19
2022-08-05T04:32:45.522Z,86.50
2022-08-05T04:34:19.158Z,86.69
2022-08-05T04:34:46.501Z,87.00
2022-08-05T04:36:15.648Z,86.50
2022-08-05T04:36:50.014Z,86.60
2022-08-05T04:38:02.783Z,86.30
2022-08-05T04:38:46.451Z,86.60
2022-08-05T04:39:45.505Z,86.85
2022-08-05T04:40:50.743Z,86.66
2022-08-05T04:41:45.643Z,86.76
2022-08-05T04:42:45.419Z,86.66
2022-08-05T04:43:47.250Z,86.85
2022-08-05T04:44:46.386Z,87.00
2022-08-05T04:45:48.855Z,87.40
2022-08-05T04:46:46.902Z,87.86
2022-08-05T04:47:47.287Z,88.16
2022-08-05T04:48:45.350Z,88.06
2022-08-05T04:50:01.862Z,88.06
2022-08-05T04:51:02.753Z,88.26
2022-08-05T04:51:46.317Z,88.16
2022-08-05T04:52:45.299Z,88.46
2022-08-05T04:53:45.289Z,88.76
2022-08-05T04:54:45.276Z,89.06
2022-08-05T04:56:14.625Z,89.26
2022-08-05T04:56:46.248Z,89.16
2022-08-05T04:57:47.932Z,88.66
2022-08-05T04:58:46.238Z,88.80
2022-08-05T04:59:45.257Z,88.80
2022-08-05T05:00:45.221Z,88.60
2022-08-05T05:02:35.211Z,88.50
2022-08-05T05:02:46.222Z,88.90
2022-08-05T05:03:45.184Z,88.80
2022-08-05T05:04:48.048Z,88.40
2022-08-05T05:06:35.868Z,88.30
2022-08-05T05:06:49.355Z,88.30
2022-08-05T05:07:52.876Z,88.60
2022-08-05T05:08:46.120Z,88.50
2022-08-05T05:09:45.118Z,88.40
2022-08-05T05:10:47.303Z,88.40
2022-08-05T05:11:54.533Z,88.75
2022-08-05T05:12:46.073Z,88.84
2022-08-05T05:13:45.063Z,88.90
2022-08-05T05:14:50.789Z,88.80
2022-08-05T05:15:59.437Z,88.70
2022-08-05T05:16:46.044Z,88.80
2022-08-05T05:17:57.114Z,88.60
2022-08-05T05:19:08.892Z,88.60
2022-08-05T05:19:47.542Z,88.60
2022-08-05T05:20:46.072Z,88.40
2022-08-05T05:21:44.976Z,88.00
2022-08-05T05:22:44.977Z,87.70
2022-08-05T05:24:03.808Z,87.80
2022-08-05T05:24:58.120Z,87.90
2022-08-05T05:25:45.942Z,88.10
2022-08-05T05:26:46.493Z,88.20
2022-08-05T05:27:48.579Z,88.20
2022-08-05T05:28:45.344Z,88.10
2022-08-05T05:30:03.347Z,87.80
2022-08-05T05:30:49.577Z,87.60
2022-08-05T05:31:46.390Z,88.20
2022-08-05T05:32:44.853Z,88.30
2022-08-05T05:33:59.512Z,88.00
2022-08-05T05:34:45.837Z,88.20
2022-08-05T05:35:44.818Z,88.20
2022-08-05T05:36:47.059Z,87.90
2022-08-05T05:37:59.637Z,87.80
2022-08-05T05:38:45.784Z,87.70
2022-08-05T05:39:45.821Z,87.70
2022-08-05T05:40:49.715Z,87.50
2022-08-05T05:41:45.749Z,87.20
2022-08-05T05:42:47.121Z,87.20
2022-08-05T05:43:57.435Z,87.10
2022-08-05T05:44:46.085Z,87.00
2022-08-05T05:45:48.374Z,87.00
2022-08-05T05:46:44.708Z,87.20
2022-08-05T05:48:05.333Z,87.00
2022-08-05T05:48:45.938Z,86.10
2022-08-05T05:49:45.628Z,86.60
2022-08-05T05:50:45.709Z,86.74
2022-08-05T05:51:50.697Z,87.10
2022-08-05T05:52:46.494Z,87.10
2022-08-05T05:53:54.184Z,86.19
2022-08-05T05:54:50.938Z,87.34
2022-08-05T05:55:51.673Z,87.44
2022-08-05T05:56:45.599Z,87.44
2022-08-05T05:57:52.144Z,87.40
2022-08-05T05:58:45.558Z,87.70
2022-08-05T05:59:44.567Z,87.90
2022-08-05T06:00:45.879Z,87.60
2022-08-05T06:01:57.506Z,87.50
2022-08-05T06:02:46.469Z,87.60
2022-08-05T06:04:01.138Z,88.00
2022-08-05T06:04:49.184Z,88.00
2022-08-05T06:05:44.479Z,88.50
2022-08-05T06:06:46.728Z,87.80
2022-08-05T06:07:57.789Z,87.10
2022-08-05T06:08:49.129Z,87.00
2022-08-05T06:10:00.546Z,87.40
2022-08-05T06:10:52.520Z,87.94
2022-08-05T06:12:00.034Z,87.74
2022-08-05T06:12:46.348Z,88.24
2022-08-05T06:13:50.499Z,88.44
2022-08-05T06:14:45.380Z,88.44
2022-08-05T06:16:30.334Z,88.54
2022-08-05T06:16:45.351Z,88.99
2022-08-05T06:17:52.854Z,89.29
2022-08-05T06:18:45.340Z,89.29
2022-08-05T06:19:44.344Z,88.39
2022-08-05T06:20:47.884Z,88.59
2022-08-05T06:21:49.920Z,88.99
2022-08-05T06:22:45.304Z,88.95
2022-08-05T06:23:44.471Z,88.54
2022-08-05T06:24:48.223Z,88.75
2022-08-05T06:26:12.388Z,88.95
2022-08-05T06:26:51.201Z,88.44
2022-08-05T06:28:12.676Z,88.24
2022-08-05T06:28:45.234Z,88.40
2022-08-05T06:29:49.372Z,88.30
2022-08-05T06:30:45.198Z,88.00
2022-08-05T06:31:44.193Z,87.20
2022-08-05T06:32:44.170Z,87.50
2022-08-05T06:34:06.743Z,87.60
2022-08-05T06:34:45.158Z,87.70
2022-08-05T06:36:05.745Z,87.76
2022-08-05T06:36:57.866Z,87.76
2022-08-05T06:37:58.113Z,87.76
2022-08-05T06:38:47.078Z,87.76
2022-08-05T06:39:44.207Z,87.96
2022-08-05T06:40:44.519Z,88.26
2022-08-05T06:41:44.072Z,88.06
2022-08-05T06:42:44.069Z,88.56
2022-08-05T06:43:51.716Z,89.16
2022-08-05T06:44:45.128Z,89.46
2022-08-05T06:46:07.277Z,88.76
2022-08-05T06:46:45.048Z,87.76
2022-08-05T06:48:35.939Z,87.66
2022-08-05T06:48:58.678Z,87.96
2022-08-05T06:50:00.251Z,87.86
2022-08-05T06:50:44.973Z,87.55
2022-08-05T06:51:44.970Z,87.46
2022-08-05T06:52:43.953Z,87.32
2022-08-05T06:53:44.959Z,86.71
2022-08-05T06:54:44.935Z,86.52
2022-08-05T06:55:44.930Z,86.91
2022-08-05T06:56:54.663Z,86.61
2022-08-05T06:57:58.199Z,86.52
2022-08-05T06:58:44.885Z,86.21
2022-08-05T06:59:48.480Z,86.32
2022-08-05T07:00:44.936Z,86.27
2022-08-05T07:01:43.883Z,86.37
2022-08-05T07:02:43.845Z,86.68
2022-08-05T07:03:43.862Z,86.57
2022-08-05T07:04:43.838Z,86.47
2022-08-05T07:05:43.835Z,85.87
2022-08-05T07:06:43.793Z,85.93
2022-08-05T07:07:44.226Z,86.13
2022-08-05T07:08:48.029Z,85.73
2022-08-05T07:09:45.753Z,84.53
2022-08-05T07:10:53.427Z,85.43
2022-08-05T07:11:49.550Z,86.23
2022-08-05T07:12:49.109Z,85.43
2022-08-05T07:13:58.779Z,85.53
2022-08-05T07:14:44.733Z,85.43
2022-08-05T07:16:01.184Z,86.33
2022-08-05T07:18:02.350Z,86.73
2022-08-05T07:18:08.903Z,86.93
2022-08-05T07:18:47.779Z,86.43
2022-08-05T07:20:44.636Z,84.79
2022-08-05T07:22:00.038Z,83.89
2022-08-05T07:22:45.840Z,83.49
2022-08-05T07:23:50.049Z,83.35
2022-08-05T07:24:52.650Z,83.15
2022-08-05T07:25:54.955Z,83.11
2022-08-05T07:26:44.578Z,82.51
2022-08-05T07:27:58.151Z,82.47
2022-08-05T07:28:44.563Z,82.17
2022-08-05T07:30:23.805Z,81.07
2022-08-05T07:30:44.561Z,80.08
2022-08-05T07:31:54.529Z,80.68
2022-08-05T07:32:44.493Z,80.98
2022-08-05T07:33:44.519Z,81.71
2022-08-05T07:34:43.507Z,81.71
2022-08-05T07:36:03.086Z,81.92
2022-08-05T07:36:44.455Z,82.35
2022-08-05T07:37:43.452Z,82.45
2022-08-05T07:38:44.224Z,82.95
2022-08-05T07:40:27.007Z,83.11
2022-08-05T07:40:44.760Z,83.61
2022-08-05T07:42:12.864Z,84.81
2022-08-05T07:42:44.415Z,85.31
2022-08-05T07:43:43.391Z,84.71
2022-08-05T07:44:43.382Z,83.71
2022-08-05T07:45:57.518Z,83.61
2022-08-05T07:46:48.625Z,83.11
2022-08-05T07:47:44.328Z,83.47
2022-08-05T07:49:02.627Z,83.47
2022-08-05T07:49:54.481Z,82.43
2022-08-05T07:50:44.316Z,81.63
2022-08-05T07:51:53.581Z,81.10
2022-08-05T07:52:44.338Z,81.10
2022-08-05T07:53:50.514Z,81.40
2022-08-05T07:54:49.077Z,81.40
2022-08-05T07:56:05.408Z,82.53
2022-08-05T07:57:01.345Z,83.29
2022-08-05T07:57:55.240Z,83.39
2022-08-05T07:58:57.649Z,81.90
2022-08-05T07:59:44.211Z,82.29
2022-08-05T08:00:43.229Z,82.50
2022-08-05T08:01:52.009Z,82.29
2022-08-05T08:03:14.208Z,82.20
2022-08-05T08:03:45.082Z,81.90
2022-08-05T08:04:43.159Z,81.26
2022-08-05T08:05:47.551Z,81.36
2022-08-05T08:06:44.137Z,81.46
2022-08-05T08:07:58.991Z,80.76
2022-08-05T08:08:44.113Z,80.16
2022-08-05T08:09:43.089Z,79.43
2022-08-05T08:10:43.100Z,79.43
2022-08-05T08:11:47.853Z,79.19
2022-08-05T08:12:49.314Z,78.99
2022-08-05T08:13:49.351Z,78.95
2022-08-05T08:14:46.684Z,78.85
2022-08-05T08:16:34.948Z,79.05
2022-08-05T08:16:51.007Z,78.69
2022-08-05T08:17:49.884Z,78.69
2022-08-05T08:18:49.982Z,79.39
2022-08-05T08:20:43.307Z,79.69
2022-08-05T08:21:01.937Z,79.28
2022-08-05T08:21:43.944Z,78.49
2022-08-05T08:22:42.995Z,78.99
2022-08-05T08:24:02.310Z,79.58
2022-08-05T08:24:51.429Z,79.39
2022-08-05T08:26:00.196Z,78.65
2022-08-05T08:26:43.887Z,78.35
2022-08-05T08:27:47.956Z,78.95
2022-08-05T08:28:55.221Z,79.41
2022-08-05T08:30:04.033Z,78.72
2022-08-05T08:30:47.718Z,79.21
2022-08-05T08:31:42.834Z,78.22
2022-08-05T08:32:42.828Z,77.48
2022-08-05T08:33:42.824Z,77.78
2022-08-05T08:34:42.799Z,78.28
2022-08-05T08:35:53.984Z,78.48
2022-08-05T08:36:47.718Z,78.08
2022-08-05T08:37:45.199Z,77.68
2022-08-05T08:38:43.760Z,77.58
2022-08-05T08:39:49.313Z,78.08
2022-08-05T08:40:50.489Z,78.18
2022-08-05T08:41:50.623Z,77.78
2022-08-05T08:42:46.754Z,78.38
2022-08-05T08:45:23.383Z,77.68
2022-08-05T08:45:23.704Z,78.61
2022-08-05T08:45:43.675Z,78.81
2022-08-05T08:46:42.680Z,78.52
2022-08-05T08:48:07.648Z,77.92
2022-08-05T08:49:07.750Z,77.82
2022-08-05T08:50:06.224Z,77.82
2022-08-05T08:51:22.004Z,77.48
2022-08-05T08:52:06.115Z,76.89
2022-08-05T08:52:43.628Z,76.45
2022-08-05T08:53:45.176Z,75.99
2022-08-05T08:54:42.577Z,77.68
2022-08-05T08:56:03.653Z,78.48
2022-08-05T08:56:47.866Z,78.28
2022-08-05T08:57:57.927Z,77.94
2022-08-05T08:58:47.606Z,77.94
2022-08-05T08:59:47.025Z,78.24
2022-08-05T09:00:42.667Z,77.51
2022-08-05T09:01:42.774Z,77.21
2022-08-05T09:02:42.500Z,76.42
2022-08-05T09:03:45.150Z,75.62
2022-08-05T09:04:58.604Z,75.52
2022-08-05T09:06:08.840Z,75.82
2022-08-05T09:06:43.450Z,75.62
2022-08-05T09:07:57.769Z,76.25
2022-08-05T09:08:43.467Z,76.45
2022-08-05T09:09:42.414Z,77.34
2022-08-05T09:10:42.504Z,77.75
2022-08-05T09:11:51.783Z,78.04
2022-08-05T09:12:43.381Z,77.84
2022-08-05T09:14:09.916Z,78.04
2022-08-05T09:14:56.487Z,77.84
2022-08-05T09:15:43.344Z,77.84
2022-08-05T09:16:42.339Z,78.14
2022-08-05T09:17:49.344Z,77.21
2022-08-05T09:18:43.379Z,76.91
2022-08-05T09:20:01.342Z,77.17
2022-08-05T09:20:43.330Z,76.18
2022-08-05T09:22:21.852Z,75.95
2022-08-05T09:22:43.273Z,76.44
2022-08-05T09:23:43.669Z,76.10
2022-08-05T09:24:42.312Z,74.72
2022-08-05T09:26:03.326Z,74.72
2022-08-05T09:26:43.693Z,73.63
2022-08-05T09:28:05.293Z,73.29
2022-08-05T09:28:43.225Z,73.10
2022-08-05T09:29:47.701Z,73.79
2022-08-05T09:30:43.185Z,74.19
2022-08-05T09:32:40.268Z,73.59
2022-08-05T09:32:46.770Z,73.63
2022-08-05T09:33:42.174Z,74.12
2022-08-05T09:34:42.143Z,75.51
2022-08-05T09:35:43.291Z,75.71
2022-08-05T09:36:45.927Z,75.74
2022-08-05T09:38:12.539Z,76.25
2022-08-05T09:38:43.254Z,76.34
2022-08-05T09:39:46.910Z,76.04
2022-08-05T09:40:51.848Z,76.38
2022-08-05T09:41:43.420Z,77.17
2022-08-05T09:42:43.055Z,77.17
2022-08-05T09:43:43.574Z,77.41
2022-08-05T09:44:43.053Z,77.51
2022-08-05T09:46:06.996Z,78.11
2022-08-05T09:46:53.617Z,78.30
2022-08-05T09:47:55.215Z,78.40
2022-08-05T09:48:43.005Z,79.10
2022-08-05T09:50:01.408Z,78.80
2022-08-05T09:50:44.777Z,78.34
2022-08-05T09:51:41.985Z,78.34
2022-08-05T09:52:45.063Z,78.74
2022-08-05T09:53:54.993Z,79.03
2022-08-05T09:54:42.936Z,79.03
2022-08-05T09:55:57.088Z,79.03
2022-08-05T09:56:51.465Z,79.14
2022-08-05T09:57:43.340Z,79.03
2022-08-05T09:58:42.371Z,79.24
2022-08-05T09:59:41.873Z,79.73
2022-08-05T10:00:41.870Z,79.77
2022-08-05T10:01:41.832Z,79.77
2022-08-05T10:02:41.918Z,79.83
2022-08-05T10:03:58.641Z,79.33
2022-08-05T10:04:42.915Z,79.33
2022-08-05T10:05:41.781Z,78.64
2022-08-05T10:06:54.650Z,77.84
2022-08-05T10:08:10.941Z,77.94
2022-08-05T10:08:42.811Z,77.75
2022-08-05T10:09:44.832Z,78.04
2022-08-05T10:10:41.779Z,78.14
2022-08-05T10:11:41.737Z,76.91
2022-08-05T10:12:49.241Z,77.11
2022-08-05T10:13:47.132Z,77.21
2022-08-05T10:14:42.697Z,77.31
2022-08-05T10:15:41.677Z,76.97
2022-08-05T10:16:52.342Z,76.97
2022-08-05T10:17:47.146Z,77.70
2022-08-05T10:18:42.676Z,76.91
2022-08-05T10:20:04.208Z,77.01
2022-08-05T10:20:42.698Z,77.41
2022-08-05T10:21:41.613Z,77.41
2022-08-05T10:22:48.570Z,77.41
2022-08-05T10:23:55.541Z,76.78
2022-08-05T10:24:42.613Z,76.28
2022-08-05T10:25:41.596Z,75.09
2022-08-05T10:26:49.136Z,75.88
2022-08-05T10:28:13.422Z,76.68
2022-08-05T10:28:42.562Z,76.48
2022-08-05T10:30:07.071Z,76.08
2022-08-05T10:32:47.233Z,76.61
2022-08-05T10:32:51.959Z,77.11
2022-08-05T10:32:54.989Z,76.51
2022-08-05T10:33:42.480Z,77.21
2022-08-05T10:34:41.497Z,77.70
2022-08-05T10:35:44.185Z,78.11
2022-08-05T10:36:41.497Z,78.00
2022-08-05T10:37:45.037Z,77.70
2022-08-05T10:38:44.981Z,78.00
2022-08-05T10:40:03.401Z,78.24
2022-08-05T10:40:43.464Z,77.55
2022-08-05T10:41:44.885Z,78.78
2022-08-05T10:42:43.777Z,79.57
2022-08-05T10:43:41.477Z,79.21
2022-08-05T10:44:42.015Z,80.24
2022-08-05T10:45:41.954Z,81.68
2022-08-05T10:46:41.353Z,83.27
2022-08-05T10:47:41.352Z,83.71
2022-08-05T10:48:56.813Z,83.81
2022-08-05T10:49:48.670Z,84.41
2022-08-05T10:50:42.293Z,84.95
2022-08-05T10:51:57.510Z,85.14
2022-08-05T10:52:49.499Z,85.58
2022-08-05T10:53:42.617Z,85.99
2022-08-05T10:54:47.211Z,86.38
2022-08-05T10:56:05.223Z,86.68
2022-08-05T10:56:42.244Z,86.93
2022-08-05T10:57:41.218Z,86.22
2022-08-05T10:58:48.811Z,86.43
2022-08-05T11:00:04.283Z,87.12
2022-08-05T11:00:44.104Z,86.87
2022-08-05T11:01:55.683Z,87.37
2022-08-05T11:02:43.736Z,87.46
2022-08-05T11:03:42.903Z,87.27
2022-08-05T11:04:41.322Z,87.76
2022-08-05T11:05:41.142Z,87.16
2022-08-05T11:06:41.138Z,86.41
2022-08-05T11:08:02.927Z,86.91
2022-08-05T11:08:42.141Z,87.21
2022-08-05T11:09:46.141Z,86.91
2022-08-05T11:10:50.232Z,87.01
2022-08-05T11:11:51.980Z,87.01
2022-08-05T11:12:42.065Z,85.95
2022-08-05T11:13:57.884Z,86.65
2022-08-05T11:15:11.722Z,87.05
2022-08-05T11:16:00.346Z,86.81
2022-08-05T11:16:56.103Z,86.61
2022-08-05T11:17:59.891Z,86.31
2022-08-05T11:18:46.951Z,85.21
2022-08-05T11:20:16.961Z,85.41
2022-08-05T11:20:44.343Z,85.11
2022-08-05T11:21:49.462Z,85.31
2022-08-05T11:22:42.190Z,84.51
2022-08-05T11:24:03.996Z,84.31
2022-08-05T11:24:41.912Z,85.55
2022-08-05T11:26:06.279Z,85.75
2022-08-05T11:26:43.234Z,85.45
2022-08-05T11:27:51.191Z,85.99
2022-08-05T11:28:42.200Z,86.49
2022-08-05T11:29:40.859Z,86.39
2022-08-05T11:30:40.840Z,85.93
2022-08-05T11:31:58.375Z,86.73
2022-08-05T11:32:41.830Z,87.13
2022-08-05T11:33:47.951Z,86.87
2022-08-05T11:34:51.502Z,87.68
2022-08-05T11:36:07.680Z,87.32
2022-08-05T11:36:42.802Z,87.92
2022-08-05T11:38:28.889Z,87.41
2022-08-05T11:38:45.983Z,87.52
2022-08-05T11:39:41.810Z,87.21
2022-08-05T11:40:41.745Z,86.52
2022-08-05T11:42:01.495Z,87.32
2022-08-05T11:42:41.745Z,87.96
2022-08-05T11:44:04.575Z,88.06
2022-08-05T11:44:54.118Z,87.26
2022-08-05T11:46:27.075Z,85.75
2022-08-05T11:47:09.982Z,86.05
2022-08-05T11:47:48.517Z,85.96
2022-08-05T11:48:41.668Z,85.46
2022-08-05T11:49:42.854Z,86.10
2022-08-05T11:50:40.625Z,87.14
2022-08-05T11:51:44.596Z,87.64
2022-08-05T11:52:41.613Z,87.14
2022-08-05T11:53:41.996Z,86.54
2022-08-05T11:54:41.829Z,86.44
2022-08-05T11:55:40.564Z,87.24
2022-08-05T11:56:41.335Z,87.14
2022-08-05T11:58:09.840Z,87.08
2022-08-05T11:58:41.566Z,86.88
2022-08-05T11:59:50.045Z,87.78
2022-08-05T12:00:44.237Z,88.23
2022-08-05T12:01:41.502Z,88.23
2022-08-05T12:02:40.541Z,88.83
2022-08-05T12:03:40.773Z,87.32
2022-08-05T12:04:41.451Z,86.72
2022-08-05T12:05:43.654Z,85.92
2022-08-05T12:06:40.453Z,86.02
2022-08-05T12:08:03.732Z,85.92
2022-08-05T12:08:50.633Z,85.61
2022-08-05T12:09:53.546Z,85.52
2022-08-05T12:10:45.041Z,85.66
2022-08-05T12:11:41.695Z,84.95
2022-08-05T12:12:46.619Z,85.25
2022-08-05T12:13:48.762Z,85.70
2022-08-05T12:14:43.297Z,86.50
2022-08-05T12:15:41.365Z,86.50
2022-08-05T12:16:40.350Z,86.30
2022-08-05T12:18:03.986Z,85.56
2022-08-05T12:18:41.371Z,83.65
2022-08-05T12:20:27.890Z,83.15
2022-08-05T12:20:41.493Z,83.25
2022-08-05T12:21:40.280Z,83.41
2022-08-05T12:22:41.221Z,83.65
2022-08-05T12:23:42.876Z,83.15
2022-08-05T12:24:40.262Z,83.25
2022-08-05T12:25:40.264Z,84.19
2022-08-05T12:26:43.880Z,84.59
2022-08-05T12:27:52.943Z,83.79
2022-08-05T12:28:41.240Z,84.09
2022-08-05T12:29:41.188Z,83.89
2022-08-05T12:30:45.926Z,83.69
2022-08-05T12:31:49.766Z,84.33
2022-08-05T12:32:41.147Z,84.63
2022-08-05T12:33:40.145Z,84.33
2022-08-05T12:34:40.135Z,85.03
2022-08-05T12:35:40.178Z,85.24
2022-08-05T12:36:40.181Z,84.94
2022-08-05T12:37:40.099Z,85.44
2022-08-05T12:38:41.374Z,85.33
2022-08-05T12:39:40.148Z,85.33
2022-08-05T12:40:40.061Z,84.74
2022-08-05T12:41:43.963Z,83.93
2022-08-05T12:42:40.037Z,83.69
2022-08-05T12:43:40.031Z,83.79
2022-08-05T12:44:40.807Z,83.18
2022-08-05T12:45:48.402Z,83.18
2022-08-05T12:46:41.027Z,83.29
2022-08-05T12:47:43.549Z,82.98
2022-08-05T12:48:40.971Z,82.28
2022-08-05T12:50:03.507Z,82.18
2022-08-05T12:50:40.965Z,80.47
2022-08-05T12:52:13.586Z,81.27
2022-08-05T12:52:42.518Z,81.48
2022-08-05T12:53:39.909Z,80.88